createdAt,value
2023-02-16T00:00:49.965Z,72.37
2023-02-16T00:03:37.075Z,69.03
2023-02-16T00:06:04.758Z,74.43
2023-02-16T00:08:32.340Z,75.00
2023-02-16T00:11:18.197Z,73.50
2023-02-16T00:13:45.550Z,67.07
2023-02-16T00:16:25.296Z,72.23
2023-02-16T00:18:53.595Z,72.93
2023-02-16T00:21:21.770Z,72.77
2023-02-16T00:23:49.574Z,73.10
2023-02-16T00:26:24.887Z,76.57
2023-02-16T00:28:58.495Z,71.07
2023-02-16T00:31:31.981Z,74.27
2023-02-16T00:34:05.152Z,75.17
2023-02-16T00:36:32.682Z,70.20
2023-02-16T00:38:59.943Z,70.57
2023-02-16T00:41:46.202Z,72.65
2023-02-16T00:44:24.064Z,66.50
2023-02-16T00:46:51.807Z,68.67
2023-02-16T00:49:22.181Z,62.57
2023-02-16T00:51:50.548Z,72.00
2023-02-16T00:54:17.973Z,71.57
2023-02-16T00:56:46.938Z,68.90
2023-02-16T00:59:21.002Z,69.55
2023-02-16T01:01:49.878Z,68.93
2023-02-16T01:04:24.052Z,67.13
2023-02-16T01:07:10.400Z,69.17
2023-02-16T01:09:56.095Z,72.37
2023-02-16T01:12:23.787Z,66.83
2023-02-16T01:14:55.457Z,67.63
2023-02-16T01:17:25.331Z,70.33
2023-02-16T01:19:52.659Z,69.90
2023-02-16T01:22:20.160Z,75.73
2023-02-16T01:24:47.462Z,64.28
2023-02-16T01:27:15.050Z,70.60
2023-02-16T01:29:42.448Z,68.23
2023-02-16T01:32:13.015Z,74.23
2023-02-16T01:34:40.460Z,66.80
2023-02-16T01:37:16.679Z,67.00
2023-02-16T01:39:44.118Z,64.87
2023-02-16T01:42:26.769Z,68.47
2023-02-16T01:45:03.349Z,70.90
2023-02-16T01:47:40.944Z,64.20
2023-02-16T01:50:23.303Z,72.63
2023-02-16T01:53:01.852Z,67.30
2023-02-16T01:55:42.871Z,75.97
2023-02-16T01:58:25.101Z,71.57
2023-02-16T02:00:52.302Z,70.13
2023-02-16T02:03:53.098Z,71.67
2023-02-16T02:06:34.711Z,78.97
2023-02-16T02:09:36.810Z,72.07
2023-02-16T02:12:23.891Z,70.67
2023-02-16T02:14:51.792Z,73.63
2023-02-16T02:17:21.585Z,69.53
2023-02-16T02:20:55.739Z,69.40
2023-02-16T02:24:03.779Z,68.37
2023-02-16T02:26:49.713Z,70.93
2023-02-16T02:30:12.826Z,71.27
2023-02-16T02:33:02.975Z,71.13
2023-02-16T02:36:19.992Z,72.57
2023-02-16T02:38:58.873Z,76.13
2023-02-16T02:42:05.909Z,78.73
2023-02-16T02:44:50.361Z,71.70
2023-02-16T02:47:17.787Z,76.20
2023-02-16T02:49:54.680Z,70.20
2023-02-16T02:52:23.663Z,72.77
2023-02-16T02:55:09.723Z,70.80
2023-02-16T02:58:03.547Z,73.97
2023-02-16T03:00:41.630Z,67.38
2023-02-16T03:03:19.413Z,69.53
2023-02-16T03:05:54.686Z,67.23
2023-02-16T03:08:27.010Z,66.07
2023-02-16T03:11:29.957Z,71.47
2023-02-16T03:14:21.153Z,71.23
2023-02-16T03:17:17.709Z,67.10
2023-02-16T03:20:08.419Z,66.30
2023-02-16T03:22:56.400Z,67.87
2023-02-16T03:25:48.327Z,69.10
2023-02-16T03:28:41.203Z,71.83
2023-02-16T03:31:14.751Z,70.43
2023-02-16T03:33:43.229Z,70.37
2023-02-16T03:36:11.801Z,73.07
2023-02-16T03:38:39.849Z,67.67
2023-02-16T03:41:07.164Z,73.57
2023-02-16T03:43:34.929Z,69.10
2023-02-16T03:46:02.292Z,70.25
2023-02-16T03:48:29.905Z,68.80
2023-02-16T03:50:57.245Z,71.00
2023-02-16T03:53:24.910Z,71.67
2023-02-16T03:55:52.395Z,72.60
2023-02-16T03:58:24.611Z,68.47
2023-02-16T04:00:52.708Z,65.83
2023-02-16T04:03:20.638Z,64.70
2023-02-16T04:05:48.222Z,64.50
2023-02-16T04:08:16.310Z,64.57
2023-02-16T04:10:45.171Z,71.23
2023-02-16T04:13:12.881Z,65.70
2023-02-16T04:15:41.528Z,68.43
2023-02-16T04:18:09.697Z,65.97
2023-02-16T04:20:37.051Z,69.73
2023-02-16T04:23:05.277Z,72.53
2023-02-16T04:25:32.800Z,70.97
2023-02-16T04:28:00.955Z,70.47
2023-02-16T04:30:32.281Z,75.13
2023-02-16T04:33:00.108Z,74.77
2023-02-16T04:35:27.597Z,75.10
2023-02-16T04:37:55.319Z,78.63
2023-02-16T04:40:22.621Z,78.50
2023-02-16T04:42:50.554Z,74.80
2023-02-16T04:45:18.043Z,76.97
2023-02-16T04:47:45.639Z,75.80
2023-02-16T04:50:13.539Z,74.20
2023-02-16T04:52:41.589Z,77.07
2023-02-16T04:55:11.148Z,76.07
2023-02-16T04:57:40.119Z,76.47
2023-02-16T05:00:11.904Z,85.33
2023-02-16T05:02:39.591Z,79.53
2023-02-16T05:05:07.749Z,77.10
2023-02-16T05:07:36.304Z,76.23
2023-02-16T05:10:04.193Z,82.77
2023-02-16T05:12:50.635Z,77.07
2023-02-16T05:15:18.011Z,80.90
2023-02-16T05:17:45.704Z,80.90
2023-02-16T05:20:13.769Z,78.03
2023-02-16T05:22:41.382Z,82.50
2023-02-16T05:25:08.665Z,83.13
2023-02-16T05:27:36.403Z,86.27
2023-02-16T05:30:04.328Z,89.30
2023-02-16T05:32:32.122Z,88.07
2023-02-16T05:34:59.426Z,79.07
2023-02-16T05:37:27.119Z,80.57
2023-02-16T05:39:54.721Z,75.10
2023-02-16T05:42:22.340Z,79.60
2023-02-16T05:44:49.676Z,77.37
2023-02-16T05:47:17.240Z,77.17
2023-02-16T05:49:44.433Z,82.00
2023-02-16T05:52:11.991Z,74.70
2023-02-16T05:54:39.396Z,78.20
2023-02-16T05:57:07.248Z,82.90
2023-02-16T05:59:34.526Z,80.50
2023-02-16T06:02:02.108Z,84.33
2023-02-16T06:04:29.467Z,80.27
2023-02-16T06:06:57.032Z,79.93
2023-02-16T06:09:24.532Z,76.00
2023-02-16T06:11:52.149Z,76.23
2023-02-16T06:14:21.519Z,81.33
2023-02-16T06:16:51.790Z,82.90
2023-02-16T06:19:20.710Z,79.50
2023-02-16T06:21:49.174Z,79.23
2023-02-16T06:24:16.600Z,81.57
2023-02-16T06:26:44.458Z,73.40
2023-02-16T06:29:11.850Z,79.57
2023-02-16T06:31:39.537Z,75.30
2023-02-16T06:34:07.200Z,77.50
2023-02-16T06:36:35.445Z,78.87
2023-02-16T06:39:03.460Z,72.23
2023-02-16T06:41:38.023Z,76.57
2023-02-16T06:44:15.398Z,77.67
2023-02-16T06:46:45.946Z,82.53
2023-02-16T06:49:18.273Z,80.80
2023-02-16T06:51:47.001Z,75.00
2023-02-16T06:54:14.779Z,76.30
2023-02-16T06:56:42.547Z,75.17
2023-02-16T06:59:11.676Z,82.43
2023-02-16T07:01:39.225Z,79.30
2023-02-16T07:04:06.633Z,78.30
2023-02-16T07:06:34.369Z,75.23
2023-02-16T07:09:01.845Z,77.18
2023-02-16T07:11:29.482Z,80.60
2023-02-16T07:13:56.786Z,73.33
2023-02-16T07:16:24.626Z,72.70
2023-02-16T07:18:52.055Z,78.82
2023-02-16T07:21:19.799Z,71.83
2023-02-16T07:23:47.472Z,71.55
2023-02-16T07:26:15.220Z,72.60
2023-02-16T07:28:42.540Z,73.70
2023-02-16T07:31:14.113Z,71.00
2023-02-16T07:33:41.626Z,70.03
2023-02-16T07:36:14.715Z,68.80
2023-02-16T07:38:42.119Z,68.07
2023-02-16T07:41:11.301Z,69.13
2023-02-16T07:43:39.508Z,67.07
2023-02-16T07:46:07.249Z,64.70
2023-02-16T07:48:35.095Z,68.82
2023-02-16T07:51:03.105Z,68.20
2023-02-16T07:53:30.821Z,64.97
2023-02-16T07:55:58.402Z,63.25
2023-02-16T07:58:29.082Z,68.75
2023-02-16T08:01:08.572Z,65.80
2023-02-16T08:03:35.892Z,70.35
2023-02-16T08:06:05.180Z,69.07
2023-02-16T08:08:33.299Z,67.60
2023-02-16T08:11:01.159Z,63.08
2023-02-16T08:13:28.557Z,61.35
2023-02-16T08:15:56.140Z,66.07
2023-02-16T08:18:23.422Z,60.30
2023-02-16T08:21:03.268Z,60.30
2023-02-16T08:23:31.676Z,59.58
2023-02-16T08:25:59.636Z,60.92
2023-02-16T08:28:28.833Z,57.75
2023-02-16T08:30:57.135Z,58.38
2023-02-16T08:33:25.212Z,56.63
2023-02-16T08:35:53.288Z,58.25
2023-02-16T08:38:20.995Z,53.42
2023-02-16T08:40:50.401Z,55.13
2023-02-16T08:43:17.807Z,54.85
2023-02-16T08:45:50.032Z,53.78
2023-02-16T08:48:17.986Z,50.50
2023-02-16T08:50:53.622Z,48.28
2023-02-16T08:53:23.429Z,50.00
2023-02-16T08:55:59.721Z,51.40
2023-02-16T08:58:27.610Z,52.42
2023-02-16T09:00:55.366Z,49.40
2023-02-16T09:03:23.525Z,46.40
2023-02-16T09:05:53.466Z,49.45
2023-02-16T09:08:21.883Z,49.95
2023-02-16T09:10:49.573Z,49.22
2023-02-16T09:13:16.999Z,47.53
2023-02-16T09:15:45.340Z,47.83
2023-02-16T09:18:14.194Z,49.75
2023-02-16T09:20:46.775Z,50.22
2023-02-16T09:23:14.432Z,48.83
2023-02-16T09:25:42.201Z,48.63
2023-02-16T09:28:11.520Z,49.17
2023-02-16T09:30:40.008Z,50.08
2023-02-16T09:33:07.920Z,52.55
2023-02-16T09:35:39.158Z,49.28
2023-02-16T09:38:08.094Z,49.67
2023-02-16T09:40:38.385Z,44.20
2023-02-16T09:43:19.100Z,46.85
2023-02-16T09:45:52.157Z,44.25
2023-02-16T09:48:45.668Z,44.42
2023-02-16T09:51:46.296Z,42.70
2023-02-16T09:54:40.926Z,44.70
2023-02-16T09:57:31.730Z,42.25
2023-02-16T10:00:33.169Z,41.65
2023-02-16T10:03:21.391Z,41.67
2023-02-16T10:06:23.239Z,40.60
2023-02-16T10:09:07.550Z,44.60
2023-02-16T10:11:48.894Z,43.90
2023-02-16T10:14:41.726Z,43.28
2023-02-16T10:17:45.446Z,44.30
2023-02-16T10:20:27.061Z,40.90
2023-02-16T10:23:31.767Z,43.33
2023-02-16T10:26:35.325Z,42.33
2023-02-16T10:29:24.108Z,41.03
2023-02-16T10:32:08.487Z,43.13
2023-02-16T10:34:47.568Z,44.50
2023-02-16T10:37:37.867Z,41.70
2023-02-16T10:40:47.182Z,42.13
2023-02-16T10:43:35.381Z,40.35
2023-02-16T10:46:06.089Z,42.08
2023-02-16T10:48:34.232Z,41.20
2023-02-16T10:51:19.106Z,42.85
2023-02-16T10:53:53.030Z,41.95
2023-02-16T10:56:57.268Z,43.88
2023-02-16T10:59:42.206Z,41.47
2023-02-16T11:02:29.504Z,41.60
2023-02-16T11:04:59.585Z,41.00
2023-02-16T11:07:30.416Z,41.30
2023-02-16T11:10:04.265Z,42.50
2023-02-16T11:12:39.930Z,39.90
2023-02-16T11:15:24.936Z,39.42
2023-02-16T11:18:20.703Z,38.42
2023-02-16T11:20:48.214Z,40.47
2023-02-16T11:23:24.834Z,42.83
2023-02-16T11:26:07.232Z,42.72
2023-02-16T11:28:42.982Z,40.47
2023-02-16T11:31:22.826Z,43.45
2023-02-16T11:34:07.705Z,39.08
2023-02-16T11:36:42.919Z,36.40
2023-02-16T11:39:31.033Z,40.10
2023-02-16T11:42:04.162Z,38.20
2023-02-16T11:44:44.587Z,41.10
2023-02-16T11:47:25.722Z,41.13
2023-02-16T11:50:21.623Z,40.45
2023-02-16T11:52:56.470Z,36.05
2023-02-16T11:55:33.389Z,38.45
2023-02-16T11:58:26.471Z,37.92
2023-02-16T12:01:23.915Z,37.33
2023-02-16T12:04:11.598Z,35.67
2023-02-16T12:07:15.700Z,36.33
2023-02-16T12:10:13.388Z,35.60
2023-02-16T12:12:46.014Z,38.53
2023-02-16T12:15:31.830Z,38.75
2023-02-16T12:18:31.492Z,42.92
2023-02-16T12:21:18.272Z,36.35
2023-02-16T12:24:14.764Z,40.10
2023-02-16T12:26:45.312Z,37.47
2023-02-16T12:29:45.160Z,37.25
2023-02-16T12:33:08.201Z,36.03
2023-02-16T12:36:02.350Z,38.90
2023-02-16T12:39:03.538Z,41.85
2023-02-16T12:42:14.517Z,36.80
2023-02-16T12:44:53.942Z,37.90
2023-02-16T12:47:32.913Z,36.67
2023-02-16T12:50:08.259Z,36.90
2023-02-16T12:53:18.820Z,39.85
2023-02-16T12:56:03.886Z,39.55
2023-02-16T12:58:39.578Z,44.10
2023-02-16T13:01:33.625Z,40.17
2023-02-16T13:04:21.148Z,35.05
2023-02-16T13:07:09.567Z,37.22
2023-02-16T13:09:53.501Z,37.88
2023-02-16T13:12:43.300Z,38.33
2023-02-16T13:15:34.504Z,41.45
2023-02-16T13:18:20.492Z,36.78
2023-02-16T13:21:08.299Z,38.33
2023-02-16T13:24:00.144Z,38.38
2023-02-16T13:27:13.950Z,37.00
2023-02-16T13:30:10.558Z,40.33
2023-02-16T13:33:14.350Z,39.55
2023-02-16T13:35:55.418Z,39.22
2023-02-16T13:38:49.229Z,40.58
2023-02-16T13:41:35.496Z,38.95
2023-02-16T13:44:13.708Z,39.35
2023-02-16T13:46:54.658Z,38.55
2023-02-16T13:49:58.884Z,41.03
2023-02-16T13:52:34.564Z,41.45
2023-02-16T13:55:08.378Z,42.03
2023-02-16T13:57:52.088Z,40.35
2023-02-16T14:00:34.159Z,41.25
2023-02-16T14:03:21.181Z,39.50
2023-02-16T14:05:55.654Z,42.13
2023-02-16T14:08:32.593Z,45.53
2023-02-16T14:11:08.463Z,43.17
2023-02-16T14:13:38.818Z,46.70
2023-02-16T14:16:17.869Z,46.47
2023-02-16T14:18:53.969Z,42.35
2023-02-16T14:21:44.178Z,43.17
2023-02-16T14:24:34.047Z,48.65
2023-02-16T14:27:10.756Z,47.97
2023-02-16T14:30:01.675Z,50.53
2023-02-16T14:32:38.669Z,49.83
2023-02-16T14:35:27.201Z,47.25
2023-02-16T14:38:05.834Z,45.03
2023-02-16T14:40:36.503Z,52.70
2023-02-16T14:43:17.813Z,47.95
2023-02-16T14:46:26.191Z,48.58
2023-02-16T14:49:25.998Z,52.88
2023-02-16T14:52:44.057Z,56.70
2023-02-16T14:55:45.036Z,56.63
2023-02-16T14:58:39.731Z,56.97
2023-02-16T15:01:17.965Z,54.22
2023-02-16T15:03:55.489Z,56.03
2023-02-16T15:06:42.249Z,57.80
2023-02-16T15:09:25.850Z,54.17
2023-02-16T15:12:16.577Z,50.78
2023-02-16T15:14:54.808Z,55.45
2023-02-16T15:17:39.173Z,52.08
2023-02-16T15:20:21.692Z,53.55
2023-02-16T15:23:02.756Z,60.25
2023-02-16T15:25:43.523Z,56.55
2023-02-16T15:28:22.656Z,74.03
2023-02-16T15:31:24.091Z,54.83
2023-02-16T15:34:09.609Z,62.15
2023-02-16T15:36:44.586Z,60.47
2023-02-16T15:39:45.109Z,57.22
2023-02-16T15:42:28.408Z,59.70
2023-02-16T15:44:57.180Z,61.08
2023-02-16T15:47:27.374Z,56.78
2023-02-16T15:49:55.233Z,56.50
2023-02-16T15:52:35.933Z,57.92
2023-02-16T15:55:09.299Z,60.92
2023-02-16T15:57:40.146Z,69.45
2023-02-16T16:00:21.988Z,62.83
2023-02-16T16:02:59.309Z,68.00
2023-02-16T16:05:30.411Z,76.72
2023-02-16T16:08:00.473Z,78.03
2023-02-16T16:10:33.746Z,81.57
2023-02-16T16:13:15.666Z,75.93
2023-02-16T16:15:48.797Z,76.85
2023-02-16T16:18:50.421Z,75.32
2023-02-16T16:21:24.293Z,79.38
2023-02-16T16:24:02.202Z,79.35
2023-02-16T16:26:36.192Z,78.53
2023-02-16T16:29:04.621Z,85.80
2023-02-16T16:31:41.185Z,79.35
2023-02-16T16:34:31.220Z,75.90
2023-02-16T16:37:02.788Z,75.47
2023-02-16T16:39:35.627Z,77.13
2023-02-16T16:42:16.388Z,81.10
2023-02-16T16:44:59.516Z,82.47
2023-02-16T16:47:40.479Z,75.55
2023-02-16T16:50:32.673Z,83.15
2023-02-16T16:53:01.984Z,80.38
2023-02-16T16:55:34.648Z,74.95
2023-02-16T16:58:08.602Z,82.20
2023-02-16T17:00:42.335Z,78.72
2023-02-16T17:03:16.593Z,75.70
2023-02-16T17:05:46.202Z,77.63
2023-02-16T17:08:13.503Z,77.05
2023-02-16T17:10:42.330Z,74.07
2023-02-16T17:13:20.117Z,82.40
2023-02-16T17:16:06.973Z,72.60
2023-02-16T17:18:34.614Z,81.70
2023-02-16T17:21:02.376Z,74.70
2023-02-16T17:23:29.764Z,75.05
2023-02-16T17:25:57.751Z,81.40
2023-02-16T17:28:25.161Z,73.28
2023-02-16T17:30:52.789Z,73.82
2023-02-16T17:33:20.335Z,74.25
2023-02-16T17:35:48.041Z,69.32
2023-02-16T17:38:22.047Z,73.75
2023-02-16T17:40:53.067Z,70.78
2023-02-16T17:43:22.798Z,70.20
2023-02-16T17:45:52.480Z,69.38
2023-02-16T17:48:23.521Z,75.57
2023-02-16T17:50:51.992Z,77.40
2023-02-16T17:53:22.905Z,73.93
2023-02-16T17:55:54.732Z,74.53
2023-02-16T17:58:25.252Z,70.82
2023-02-16T18:00:53.551Z,74.20
2023-02-16T18:03:23.064Z,76.18
2023-02-16T18:05:51.619Z,74.18
2023-02-16T18:08:19.074Z,75.80
2023-02-16T18:10:52.030Z,78.75
2023-02-16T18:13:20.527Z,76.85
2023-02-16T18:15:50.406Z,77.22
2023-02-16T18:18:20.867Z,76.75
2023-02-16T18:20:48.595Z,77.72
2023-02-16T18:23:17.329Z,81.90
2023-02-16T18:25:45.810Z,82.28
2023-02-16T18:28:20.529Z,88.55
2023-02-16T18:30:50.632Z,85.05
2023-02-16T18:33:23.237Z,78.28
2023-02-16T18:35:58.058Z,80.53
2023-02-16T18:38:25.928Z,96.95
2023-02-16T18:40:55.132Z,84.43
2023-02-16T18:43:23.492Z,84.05
2023-02-16T18:45:51.242Z,89.22
2023-02-16T18:48:18.736Z,86.72
2023-02-16T18:50:46.436Z,80.95
2023-02-16T18:53:13.967Z,87.80
2023-02-16T18:55:41.682Z,88.25
2023-02-16T18:58:12.998Z,91.47
2023-02-16T19:00:40.993Z,89.88
2023-02-16T19:03:09.183Z,88.35
2023-02-16T19:05:37.457Z,87.88
2023-02-16T19:08:05.205Z,86.63
2023-02-16T19:10:33.793Z,90.85
2023-02-16T19:13:02.234Z,87.30
2023-02-16T19:15:30.263Z,85.85
2023-02-16T19:17:57.798Z,92.97
2023-02-16T19:20:25.907Z,84.53
2023-02-16T19:22:53.408Z,85.60
2023-02-16T19:25:21.860Z,85.80
2023-02-16T19:27:49.307Z,81.82
2023-02-16T19:30:17.158Z,86.53
2023-02-16T19:32:44.638Z,80.23
2023-02-16T19:35:12.922Z,77.32
2023-02-16T19:37:40.432Z,88.82
2023-02-16T19:40:10.771Z,86.20
2023-02-16T19:42:39.221Z,87.55
2023-02-16T19:45:08.489Z,82.35
2023-02-16T19:47:36.356Z,87.32
2023-02-16T19:50:04.986Z,89.00
2023-02-16T19:52:32.575Z,85.75
2023-02-16T19:55:00.256Z,84.78
2023-02-16T19:57:27.754Z,81.30
2023-02-16T19:59:55.432Z,82.55
2023-02-16T20:02:22.801Z,80.90
2023-02-16T20:04:50.786Z,80.18
2023-02-16T20:07:18.202Z,80.30
2023-02-16T20:09:45.855Z,81.15
2023-02-16T20:12:13.942Z,83.50
2023-02-16T20:14:41.645Z,84.73
2023-02-16T20:17:09.052Z,90.97
2023-02-16T20:19:36.729Z,91.20
2023-02-16T20:22:04.104Z,84.60
2023-02-16T20:24:31.741Z,87.33
2023-02-16T20:27:04.037Z,84.70
2023-02-16T20:29:32.600Z,94.83
2023-02-16T20:32:00.502Z,91.13
2023-02-16T20:34:28.366Z,89.60
2023-02-16T20:36:55.787Z,87.43
2023-02-16T20:39:24.084Z,90.63
2023-02-16T20:41:51.413Z,90.27
2023-02-16T20:44:19.326Z,88.00
2023-02-16T20:46:46.685Z,94.03
2023-02-16T20:49:16.469Z,101.70
2023-02-16T20:51:44.293Z,100.33
2023-02-16T20:54:12.940Z,96.30
2023-02-16T20:56:40.788Z,97.43
2023-02-16T20:59:08.672Z,94.30
2023-02-16T21:01:43.563Z,104.40
2023-02-16T21:04:11.452Z,97.73
2023-02-16T21:06:39.519Z,93.95
2023-02-16T21:09:09.646Z,90.70
2023-02-16T21:11:39.149Z,96.27
2023-02-16T21:14:08.617Z,93.37
2023-02-16T21:16:37.021Z,95.10
2023-02-16T21:19:09.287Z,92.07
2023-02-16T21:21:45.612Z,99.27
2023-02-16T21:24:13.018Z,94.43
2023-02-16T21:26:40.650Z,103.53
2023-02-16T21:29:07.952Z,99.33
2023-02-16T21:31:35.681Z,97.47
2023-02-16T21:34:03.087Z,97.23
2023-02-16T21:36:30.796Z,102.60
2023-02-16T21:38:58.120Z,99.27
2023-02-16T21:41:29.353Z,99.83
2023-02-16T21:44:06.212Z,99.27
2023-02-16T21:46:43.099Z,100.27
2023-02-16T21:49:18.331Z,96.63
2023-02-16T21:51:48.194Z,95.37
2023-02-16T21:54:38.975Z,97.90
2023-02-16T21:57:06.633Z,92.87
2023-02-16T21:59:34.427Z,98.33
2023-02-16T22:02:02.101Z,92.90
2023-02-16T22:04:29.458Z,96.80
2023-02-16T22:06:57.161Z,103.77
2023-02-16T22:09:24.552Z,104.73
2023-02-16T22:11:52.414Z,99.00
2023-02-16T22:14:19.944Z,98.28
2023-02-16T22:16:48.741Z,99.43
2023-02-16T22:19:18.464Z,96.53
2023-02-16T22:21:48.691Z,92.33
2023-02-16T22:24:19.464Z,98.87
2023-02-16T22:26:49.861Z,98.33
2023-02-16T22:29:18.823Z,97.00
2023-02-16T22:31:49.789Z,91.87
2023-02-16T22:34:22.007Z,96.33
2023-02-16T22:36:50.197Z,94.13
2023-02-16T22:39:19.005Z,95.80
2023-02-16T22:41:49.256Z,94.30
2023-02-16T22:44:16.775Z,97.47
2023-02-16T22:46:44.465Z,89.57
2023-02-16T22:49:11.924Z,96.80
2023-02-16T22:51:39.662Z,86.20
2023-02-16T22:54:08.048Z,91.72
2023-02-16T22:56:35.852Z,98.97
2023-02-16T22:59:03.165Z,101.00
2023-02-16T23:01:31.516Z,95.53
2023-02-16T23:04:01.328Z,97.23
2023-02-16T23:06:35.842Z,96.63
2023-02-16T23:09:09.137Z,94.85
2023-02-16T23:11:36.844Z,100.37
2023-02-16T23:14:05.774Z,94.68
2023-02-16T23:16:33.525Z,91.63
2023-02-16T23:19:00.955Z,91.22
2023-02-16T23:21:31.376Z,90.97
2023-02-16T23:24:00.305Z,89.67
2023-02-16T23:26:30.757Z,87.73
2023-02-16T23:29:02.220Z,88.33
2023-02-16T23:31:36.071Z,91.18
2023-02-16T23:34:05.271Z,94.60
2023-02-16T23:36:35.381Z,95.38
2023-02-16T23:39:06.546Z,83.10
2023-02-16T23:41:34.558Z,92.97
2023-02-16T23:44:01.868Z,87.20
2023-02-16T23:46:29.707Z,89.70
2023-02-16T23:48:57.131Z,93.47
2023-02-16T23:51:25.067Z,87.05
2023-02-16T23:53:52.457Z,90.57
2023-02-16T23:56:25.180Z,93.20
2023-02-16T23:58:56.013Z,94.50
